This is the latest recevied weather packets stored in our database for station/object N5ZKK. If no packets are shown the sender has not sent any weather packets the latest 10 day(s).
| Time | Temp. | Humidity | Pressure | Rain* | Wind** | Luminosity | Snow |
|---|---|---|---|---|---|---|---|
| 1777536541 | 15.56° C | 99% | 1015 hPa | 0 mm | - | - | - |
| 1777534741 | 15.56° C | 99% | 1014 hPa | 0 mm | - | - | - |
| 1777532941 | 15.56° C | 99% | 1015 hPa | 0 mm | - | - | - |
| 1777531141 | 15.56° C | 99% | 1015.5 hPa | 0 mm | - | - | - |
| 1777529341 | 16.11° C | 97% | 1015.2 hPa | 0 mm | - | - | - |
| 1777527541 | 16.67° C | 96% | 1014.9 hPa | 0 mm | - | - | - |
| 1777525741 | 17.22° C | 95% | 1015 hPa | 0 mm | - | - | - |
| 1777523941 | 17.22° C | 94% | 1015.8 hPa | 0 mm | - | - | - |
| 1777522141 | 17.78° C | 94% | 1015.8 hPa | 0 mm | - | - | - |
| 1777520341 | 17.78° C | 94% | 1015.4 hPa | 0 mm | - | - | - |
| 1777518541 | 18.33° C | 94% | 1014.7 hPa | 0 mm | - | - | - |
| 1777516741 | 18.33° C | 95% | 1014.1 hPa | 0 mm | - | - | - |
| 1777514941 | 18.33° C | 95% | 1014.2 hPa | 0 mm | - | - | - |
| 1777513141 | 18.33° C | 95% | 1013.3 hPa | 0 mm | - | - | - |
| 1777511341 | 19.44° C | 92% | 1012.2 hPa | 0 mm | - | - | - |
| 1777509541 | 20° C | 91% | 1013.1 hPa | 0 mm | - | - | - |
| 1777507741 | 21.11° C | 89% | 1012.4 hPa | 0 mm | - | - | - |
| 1777505941 | 21.67° C | 90% | 1011.4 hPa | 0 mm | - | - | - |
| 1777504141 | 22.22° C | 88% | 1011.4 hPa | 0 mm | - | - | - |
| 1777502341 | 23.33° C | 85% | 1010.9 hPa | 0 mm | - | - | - |
| 1777500541 | 25.56° C | 79% | 1010.3 hPa | 0 mm | - | - | - |
| 1777498741 | 26.67° C | 76% | 1010.2 hPa | 0 mm | - | - | - |
| 1777496941 | 28.89° C | 72% | 1010 hPa | 0 mm | - | - | - |
| 1777495141 | 30° C | 70% | 1010 hPa | 0 mm | - | - | - |
| 1777493341 | 30° C | 72% | 1010.5 hPa | 0 mm | - | - | - |
* Rain latest hour (hover to see other rain measurements)
** Current wind speed in m/s (hover to see current wind gust speed)